Share

Marksville, LA (71351)

Alexandria Esler Regional (KESF) Elev 112 ft | 31.39 °N, 92.30 °W | Change Station

Current weather conditions updated 40 minutes ago

Scattered Clouds
Scattered Clouds
77 °F
Feels Like 77 °F
N
8
Wind Variable Wind from North
Sunrise 6:37 AM
Sunset 7:38 PM
Moon Waning Gibbous

Tomorrow is forecast to be nearly the same temperature as today.

Pressure 30.09 in
Visibility 10.0 miles
Clouds Scattered Clouds 3900 ft
Dew Point 56 °F
Humidity 48%
Rainfall 0.00 in
Snow Depth Not available.
UV 3 out of 16
Pollen 5.40 out of 12
Air Quality Not available.
Flu Activity Local Activity
METAR KESF 182153Z AUTO 01007KT 10SM SCT039 25/13 A3009 RMK AO2 SLP189 T02500133

More Conditions Fewer Conditions

Pressure 30.09 in
Visibility 10.0 miles
Clouds Scattered Clouds 3900 ft
Dew Point 56 °F
Humidity 48%
Rainfall 0.00 in
Snow Depth Not available.
UV 3 out of 16
Pollen 5.40 out of 12
Air Quality Not available.
Flu Activity Local Activity
METAR KESF 182153Z AUTO 01007KT 10SM SCT039 25/13 A3009 RMK AO2 SLP189 T02500133

More Conditions Fewer Conditions

10-Day Weather Forecast

Almanac

Astronomy

Apr. 18, 2014 Rise Set
Actual Time 6:37 AM CDT 7:38 PM CDT
Civil Twilight 6:12 AM CDT 8:03 PM CDT
Nautical Twilight 5:42 AM CDT 8:33 PM CDT
Astronomical Twilight 5:11 AM CDT 9:04 PM CDT
Moon 11:15 PM CDT 9:07 AM CDT
Length of Visible Light 13h 51m
Length of Day
13h 01m
Tomorrow will be 1m 46s longer.
Waning Gibbous, 85% of the Moon is Illuminated
Today
Waning Gibbous
Apr 22
Last Quarter
Apr 29
New
May 6
First Quarter
May 14
Full

Today's Extremes

State Highs State Lows

Community

  • Spring Chickadee
    Spring Chickadee
  • What's for Lunch?
    What's for Lunch?
  • SUNRISE THROUGH THE TREES.
    SUNRISE THROUGH THE TREES.
  • Dog Wood Blossoms
    Dog Wood Blossoms
  • Morning Light
    Morning Light

WunderPhotos

Upload Photos

1,702,527 photos uploaded!

WunderBlogs® & News

Nearby

Snow Depth

Station Depth Elevation
No new snow has been reported.

Coastal Water Temperatures

Place Temperature
No Stations Reporting

Earthquake Activity

City Distance Mag. Time & Date
No recent earthquake activity has been reported nearby.
Minimum magnitude displayed is 2.5.

Nearby Weather Stations

Station Location Temp. Dew Point Humidity Wind Precip. Elev Updated Type
MesoWest CHNYVL , Cheneyville, LA 70 °F - - North  at  - 0.00 in / hr 68 ft 4:20 PM CDT MADIS
MesoWest BUNKIE , Goudeau, LA 71 °F - - North  at  - 0.00 in / hr 51 ft 4:40 PM CDT MADIS

Show More Stations Show Fewer Stations

What do you think?

We're not finished. Please let us know what you like, what you don't like, and what you are still missing.